Time;durP1;ratioP1;P1;durP2;ratioP2;P2;SDS_P1;SDS_P2;PMS_P1;PMS_P2;Temp;Humidity;BMP_temperature;BMP_pressure;BME280_temperature;BME280_humidity;BME280_pressure;Samples;Min_cycle;Max_cycle;Signal;HPM_P1;HPM_P2
2024/01/09 00:02:38;;;;;;;32.70;11.20;;;;;;;-25.31;99.72;136203.05;107048;1275;25363;-58
2024/01/09 00:05:24;;;;;;;27.30;8.90;;;;;;;-25.24;99.53;136219.03;107134;1267;25296;-58
2024/01/09 00:08:09;;;;;;;21.50;8.10;;;;;;;-25.25;98.97;136218.55;107061;1270;25494;-58
2024/01/09 00:10:58;;;;;;;14.70;6.70;;;;;;;-25.23;98.52;136222.20;107081;1266;22526;-58
2024/01/09 00:13:43;;;;;;;16.40;7.10;;;;;;;-25.33;97.78;136197.95;107062;1270;24348;-58
2024/01/09 00:16:28;;;;;;;17.40;6.30;;;;;;;-25.42;97.44;136176.63;107152;1270;25417;-57
2024/01/09 00:19:16;;;;;;;18.50;7.20;;;;;;;-25.53;97.53;136150.72;107237;1263;25568;-57
2024/01/09 00:22:02;;;;;;;19.40;7.60;;;;;;;-25.57;98.03;136141.75;107359;1266;25331;-57
2024/01/09 00:24:48;;;;;;;16.40;6.90;;;;;;;-25.59;97.46;136135.95;107109;1272;25324;-59
2024/01/09 00:27:34;;;;;;;17.30;7.90;;;;;;;-25.59;97.27;136135.95;107092;1273;25561;-58
2024/01/09 00:30:19;;;;;;;13.70;6.80;;;;;;;-25.60;97.16;136134.50;107070;1273;25424;-58
2024/01/09 00:33:05;;;;;;;17.30;7.70;;;;;;;-25.58;97.04;136137.66;107090;1267;25353;-57
2024/01/09 00:35:51;;;;;;;17.00;7.30;;;;;;;-25.58;97.02;136138.13;107040;1264;25343;-58
2024/01/09 00:38:36;;;;;;;16.70;7.50;;;;;;;-25.58;96.64;136139.33;107066;1272;25353;-57
2024/01/09 00:41:23;;;;;;;15.50;6.20;;;;;;;-25.62;96.26;136130.11;107080;1272;25461;-56
2024/01/09 00:44:08;;;;;;;18.10;6.40;;;;;;;-25.64;96.03;136125.53;107198;1269;25397;-57
2024/01/09 00:46:54;;;;;;;18.40;8.50;;;;;;;-25.68;95.59;136116.09;107099;1272;25334;-58
2024/01/09 00:49:39;;;;;;;16.30;7.20;;;;;;;-25.70;95.73;136111.00;107001;1273;25545;-58
2024/01/09 00:52:25;;;;;;;23.50;7.70;;;;;;;-25.68;95.80;136115.38;107045;1273;25395;-59
2024/01/09 00:55:12;;;;;;;16.30;7.40;;;;;;;-25.61;96.01;136132.33;107114;1264;25407;-57
2024/01/09 00:57:57;;;;;;;13.50;6.40;;;;;;;-25.52;95.76;136155.08;107065;1275;25395;-58
2024/01/09 01:00:42;;;;;;;16.60;7.50;;;;;;;-25.43;95.81;136173.48;107061;1266;23856;-57
2024/01/09 01:03:29;;;;;;;17.70;8.40;;;;;;;-25.43;95.02;136174.22;107168;1267;25456;-59
2024/01/09 01:06:14;;;;;;;22.10;9.20;;;;;;;-25.48;94.53;136163.08;107058;1273;25411;-56
2024/01/09 01:09:00;;;;;;;22.70;9.00;;;;;;;-25.52;94.38;136153.38;107141;1267;25353;-58
2024/01/09 01:11:45;;;;;;;18.00;9.70;;;;;;;-25.55;94.37;136146.59;106948;1272;25324;-57
2024/01/09 01:14:31;;;;;;;19.90;10.00;;;;;;;-25.59;94.53;136136.19;106979;1275;25474;-57
2024/01/09 01:17:16;;;;;;;18.30;8.50;;;;;;;-25.57;94.63;136140.78;106989;1267;25338;-57
2024/01/09 01:20:03;;;;;;;20.50;9.70;;;;;;;-25.57;94.08;136140.80;107046;1274;25340;-58
2024/01/09 01:22:48;;;;;;;18.70;8.20;;;;;;;-25.53;94.44;136150.72;107079;1267;25362;-58
2024/01/09 01:25:34;;;;;;;13.40;7.20;;;;;;;-25.53;93.97;136151.69;107047;1267;25324;-58
2024/01/09 01:28:19;;;;;;;18.80;7.90;;;;;;;-25.55;93.59;136145.16;106979;1270;25415;-58
2024/01/09 01:31:04;;;;;;;20.90;8.30;;;;;;;-25.58;93.33;136138.36;106928;1273;25433;-59
2024/01/09 01:33:50;;;;;;;18.90;8.40;;;;;;;-25.61;93.41;136131.34;106963;1266;25469;-60
2024/01/09 01:36:36;;;;;;;17.70;7.00;;;;;;;-25.61;93.44;136131.58;106979;1264;25382;-58
2024/01/09 01:39:21;;;;;;;15.40;8.20;;;;;;;-25.65;93.51;136122.38;106980;1274;25412;-58
2024/01/09 01:42:07;;;;;;;24.20;8.10;;;;;;;-25.63;93.43;136128.19;107049;1266;25494;-58
2024/01/09 01:44:52;;;;;;;27.60;10.80;;;;;;;-25.57;93.21;136141.53;107076;1271;25376;-59
2024/01/09 01:47:38;;;;;;;21.40;9.40;;;;;;;-25.51;92.87;136156.03;107105;1273;25334;-59
2024/01/09 01:50:24;;;;;;;22.00;9.10;;;;;;;-25.45;92.84;136169.84;106978;1264;25344;-59
2024/01/09 01:53:09;;;;;;;20.00;9.50;;;;;;;-25.39;92.21;136183.17;107130;1275;25494;-58
2024/01/09 01:55:55;;;;;;;23.00;10.00;;;;;;;-25.33;92.27;136198.69;107050;1260;25469;-60
2024/01/09 01:58:41;;;;;;;23.50;9.60;;;;;;;-25.28;91.79;136211.30;107022;1264;25364;-60
2024/01/09 02:01:26;;;;;;;23.40;10.50;;;;;;;-25.23;91.77;136223.66;107018;1267;25382;-59
2024/01/09 02:04:12;;;;;;;26.40;11.30;;;;;;;-25.17;91.49;136234.53;107173;1262;25567;-59
2024/01/09 02:06:58;;;;;;;27.00;11.00;;;;;;;-25.16;91.00;136238.42;107138;1264;25334;-59
2024/01/09 02:09:44;;;;;;;25.70;11.20;;;;;;;-25.13;91.05;136244.67;107105;1268;25445;-58
2024/01/09 02:12:30;;;;;;;25.60;11.50;;;;;;;-25.12;90.48;136247.09;107066;1264;25363;-60
2024/01/09 02:15:16;;;;;;;26.90;12.00;;;;;;;-25.10;90.50;136253.66;107207;1273;25382;-59
2024/01/09 02:18:01;;;;;;;23.20;9.90;;;;;;;-25.09;90.72;136255.09;107133;1267;25440;-59
2024/01/09 02:20:47;;;;;;;19.50;8.80;;;;;;;-25.07;90.41;136259.69;107063;1267;25418;-59
2024/01/09 02:23:33;;;;;;;21.70;10.10;;;;;;;-25.03;90.09;136269.38;107170;1268;23291;-59
2024/01/09 02:26:20;;;;;;;16.30;7.10;;;;;;;-24.99;90.01;136279.81;107075;1270;22539;-57
2024/01/09 02:29:29;;;;;;;19.30;9.00;;;;;;;-24.95;89.21;136288.30;107181;1267;25401;-56
2024/01/09 02:32:16;;;;;;;19.00;8.00;;;;;;;-24.89;89.27;136303.58;107110;1263;25363;-58
2024/01/09 02:35:02;;;;;;;18.10;8.00;;;;;;;-24.82;88.80;136320.53;107018;1267;25350;-59
2024/01/09 02:37:48;;;;;;;19.80;8.00;;;;;;;-24.71;88.76;136344.78;107071;1266;25334;-59
2024/01/09 02:40:34;;;;;;;15.80;7.50;;;;;;;-24.69;88.83;136349.38;107038;1266;25348;-59
2024/01/09 02:43:19;;;;;;;15.30;5.80;;;;;;;-24.77;88.07;136331.69;107127;1269;25568;-57
2024/01/09 02:46:04;;;;;;;18.90;7.20;;;;;;;-24.80;88.36;136323.92;107091;1273;25372;-58
2024/01/09 02:48:49;;;;;;;21.30;8.10;;;;;;;-24.87;87.58;136307.20;107184;1272;25368;-59
2024/01/09 02:51:35;;;;;;;19.20;9.10;;;;;;;-24.88;87.83;136306.25;107172;1264;22528;-58
2024/01/09 02:54:20;;;;;;;18.50;7.60;;;;;;;-24.76;87.84;136333.39;107188;1264;25363;-57
2024/01/09 02:57:05;;;;;;;21.40;7.90;;;;;;;-24.68;87.81;136351.33;107069;1268;25411;-58
2024/01/09 02:59:50;;;;;;;20.00;7.10;;;;;;;-24.66;87.18;136356.41;107039;1260;25539;-59
2024/01/09 03:02:36;;;;;;;18.80;7.90;;;;;;;-24.63;87.05;136364.91;106976;1267;23190;-59
2024/01/09 03:05:23;;;;;;;16.50;6.40;;;;;;;-24.49;86.38;136397.41;107183;1264;22492;-57
2024/01/09 03:08:08;;;;;;;18.30;7.40;;;;;;;-24.43;85.39;136411.92;107077;1267;25327;-59
2024/01/09 03:10:54;;;;;;;17.90;7.80;;;;;;;-24.37;84.70;136424.77;107074;1273;25497;-58
2024/01/09 03:13:40;;;;;;;15.70;8.00;;;;;;;-24.31;83.48;136440.28;107128;1254;25411;-60
2024/01/09 03:16:25;;;;;;;21.50;7.90;;;;;;;-24.25;83.30;136454.11;107056;1254;22545;-57
2024/01/09 03:19:10;;;;;;;23.50;9.40;;;;;;;-24.20;83.16;136465.98;107230;1267;25589;-57
2024/01/09 03:21:56;;;;;;;17.90;7.50;;;;;;;-24.15;82.74;136476.67;107064;1264;25490;-57
2024/01/09 03:24:42;;;;;;;23.10;8.30;;;;;;;-24.29;82.29;136445.38;107080;1262;25454;-60
2024/01/09 03:27:27;;;;;;;19.30;8.10;;;;;;;-24.35;82.64;136432.52;106992;1264;25338;-61
2024/01/09 03:30:12;;;;;;;21.90;7.20;;;;;;;-24.31;82.70;136439.80;107139;1265;25433;-60
2024/01/09 03:32:58;;;;;;;24.00;9.60;;;;;;;-24.29;82.57;136444.17;107152;1267;25437;-59
2024/01/09 03:35:45;;;;;;;16.80;7.60;;;;;;;-24.33;82.50;136435.42;107090;1275;25381;-66
2024/01/09 03:38:30;;;;;;;21.20;9.20;;;;;;;-24.36;82.10;136428.41;107097;1267;25338;-58
2024/01/09 03:41:16;;;;;;;21.50;9.30;;;;;;;-24.29;82.18;136444.16;107051;1269;25354;-59
2024/01/09 03:44:02;;;;;;;18.90;8.30;;;;;;;-24.24;81.81;136456.53;107084;1267;25442;-59
2024/01/09 03:46:47;;;;;;;20.10;8.60;;;;;;;-24.24;81.23;136456.77;107098;1266;25362;-60
2024/01/09 03:49:33;;;;;;;26.30;10.30;;;;;;;-24.26;80.78;136452.66;107141;1263;22493;-59
2024/01/09 03:52:18;;;;;;;21.20;7.60;;;;;;;-24.31;81.04;136438.59;107189;1260;25310;-59
2024/01/09 03:55:04;;;;;;;22.60;8.80;;;;;;;-24.40;81.09;136420.41;107143;1260;25497;-61
2024/01/09 03:57:50;;;;;;;16.70;7.00;;;;;;;-24.37;81.40;136425.75;107192;1260;25406;-60
2024/01/09 04:00:35;;;;;;;19.20;7.10;;;;;;;-24.37;81.31;136426.72;107135;1260;26133;-59
2024/01/09 04:03:20;;;;;;;22.70;8.80;;;;;;;-24.39;81.27;136420.66;107116;1260;22534;-59
2024/01/09 04:06:06;;;;;;;23.00;9.20;;;;;;;-24.45;81.48;136407.80;107084;1265;25519;-58
2024/01/09 04:08:51;;;;;;;19.30;8.20;;;;;;;-24.48;81.54;136400.53;107026;1257;25411;-58
2024/01/09 04:11:47;;;;;;;20.60;7.40;;;;;;;-24.51;81.60;136393.28;107081;1267;25365;-59
2024/01/09 04:14:33;;;;;;;19.00;7.60;;;;;;;-24.49;81.62;136398.11;107166;1264;25391;-59
2024/01/09 04:17:22;;;;;;;22.00;8.40;;;;;;;-24.45;81.47;136407.56;107090;1263;25505;-59
2024/01/09 04:20:12;;;;;;;18.90;7.50;;;;;;;-24.37;81.62;136426.69;107071;1266;25517;-58
2024/01/09 04:22:58;;;;;;;21.40;8.60;;;;;;;-24.35;81.76;136431.03;107120;1263;25343;-59
2024/01/09 04:25:43;;;;;;;19.70;7.60;;;;;;;-24.36;81.77;136428.17;107041;1267;25362;-58
2024/01/09 04:28:29;;;;;;;21.80;8.60;;;;;;;-24.37;81.65;136426.70;107058;1265;23700;-60
2024/01/09 04:31:14;;;;;;;16.50;6.70;;;;;;;-24.36;81.70;136428.41;107053;1266;25415;-58
2024/01/09 04:34:00;;;;;;;21.50;7.80;;;;;;;-24.39;81.83;136422.33;107153;1267;25362;-60
2024/01/09 04:36:46;;;;;;;32.00;9.30;;;;;;;-24.42;81.79;136415.33;107099;1266;25420;-59
2024/01/09 04:39:32;;;;;;;18.10;7.50;;;;;;;-24.41;82.11;136415.80;107094;1264;25424;-59
2024/01/09 04:42:17;;;;;;;20.00;7.30;;;;;;;-24.38;83.14;136423.78;107173;1261;25360;-59
2024/01/09 04:45:03;;;;;;;19.40;8.50;;;;;;;-24.33;83.61;136434.70;107130;1267;25494;-59
2024/01/09 04:47:48;;;;;;;20.90;8.70;;;;;;;-24.28;83.34;136445.39;107174;1260;25488;-59
2024/01/09 04:50:34;;;;;;;21.20;8.40;;;;;;;-24.33;83.84;136436.41;107203;1263;25347;-59
2024/01/09 04:53:19;;;;;;;16.80;7.30;;;;;;;-24.38;83.64;136425.00;107105;1270;25337;-57
2024/01/09 04:56:06;;;;;;;21.60;8.10;;;;;;;-24.36;84.29;136428.89;107187;1267;25363;-59
2024/01/09 04:58:53;;;;;;;18.70;8.90;;;;;;;-24.33;84.00;136434.94;107106;1263;25401;-58
2024/01/09 05:01:39;;;;;;;19.20;8.30;;;;;;;-24.36;84.55;136429.61;107191;1266;25453;-59
2024/01/09 05:04:24;;;;;;;14.10;5.80;;;;;;;-24.40;84.23;136418.45;107063;1263;22984;-60
2024/01/09 05:07:10;;;;;;;22.20;8.10;;;;;;;-24.44;84.77;136410.22;107099;1267;24033;-60
2024/01/09 05:09:55;;;;;;;19.30;7.00;;;;;;;-24.46;84.84;136404.42;107123;1264;22664;-59
2024/01/09 05:12:41;;;;;;;19.50;8.60;;;;;;;-24.41;85.22;136415.78;107125;1260;25353;-60
2024/01/09 05:15:26;;;;;;;21.60;8.10;;;;;;;-24.39;85.68;136421.13;107091;1254;25398;-58
2024/01/09 05:18:11;;;;;;;15.00;7.40;;;;;;;-24.37;85.91;136426.45;107115;1266;25414;-59
2024/01/09 05:20:56;;;;;;;19.60;7.80;;;;;;;-24.27;86.97;136448.03;106953;1266;22571;-59
2024/01/09 05:23:42;;;;;;;21.70;8.90;;;;;;;-24.19;86.32;136468.66;107061;1260;25404;-60
2024/01/09 05:26:28;;;;;;;19.10;8.10;;;;;;;-24.24;85.75;136455.33;107108;1267;25405;-59
2024/01/09 05:29:13;;;;;;;18.80;7.10;;;;;;;-24.26;85.01;136451.44;107129;1264;25337;-58
2024/01/09 05:31:59;;;;;;;24.70;8.90;;;;;;;-24.29;85.43;136444.16;107117;1264;125566;-60
2024/01/09 05:34:44;;;;;;;17.30;6.60;;;;;;;-24.26;85.86;136451.92;107091;1264;25365;-60
2024/01/09 05:37:30;;;;;;;21.90;7.60;;;;;;;-24.21;85.64;136463.31;107095;1266;25348;-60
2024/01/09 05:40:17;;;;;;;21.60;7.60;;;;;;;-24.18;86.00;136472.31;107150;1266;25398;-59
2024/01/09 05:43:02;;;;;;;16.90;7.70;;;;;;;-24.14;85.64;136480.06;107102;1261;22527;-59
2024/01/09 05:45:48;;;;;;;13.30;7.10;;;;;;;-24.16;85.77;136474.97;107071;1262;25571;-59
2024/01/09 05:48:33;;;;;;;17.20;7.10;;;;;;;-24.14;85.92;136480.05;107069;1266;25370;-60
2024/01/09 05:51:19;;;;;;;17.40;8.20;;;;;;;-24.12;86.31;136484.17;106984;1267;25372;-60
2024/01/09 05:54:04;;;;;;;20.40;7.40;;;;;;;-24.03;86.45;136507.70;106945;1264;25558;-59
2024/01/09 05:56:50;;;;;;;16.50;7.20;;;;;;;-23.94;85.92;136527.63;107106;1272;25479;-60
2024/01/09 05:59:36;;;;;;;15.60;6.40;;;;;;;-23.88;86.04;136541.44;107128;1266;25407;-59
2024/01/09 06:02:24;;;;;;;16.70;7.80;;;;;;;-23.82;85.80;136555.05;107085;1269;25347;-59
2024/01/09 06:05:10;;;;;;;14.90;7.00;;;;;;;-23.76;85.96;136569.13;107109;1264;25353;-60
2024/01/09 06:07:55;;;;;;;15.30;7.10;;;;;;;-23.59;85.89;136610.83;107183;1263;22627;-59
2024/01/09 06:10:41;;;;;;;15.70;6.40;;;;;;;-23.05;85.39;136738.77;107043;1254;25487;-60
2024/01/09 06:13:27;;;;;;;22.70;8.40;;;;;;;-22.70;83.17;136822.30;107105;1267;25396;-57
2024/01/09 06:16:12;;;;;;;16.20;7.50;;;;;;;-22.16;82.21;136949.16;107250;1253;25366;-61
2024/01/09 06:18:58;;;;;;;18.50;7.00;;;;;;;-21.43;79.69;137123.50;107098;1267;25567;-59
2024/01/09 06:21:44;;;;;;;18.40;7.70;;;;;;;-20.94;77.38;137240.31;107067;1257;25484;-58
2024/01/09 06:24:30;;;;;;;22.70;7.90;;;;;;;-20.28;74.45;137396.86;107122;1264;25424;-60
2024/01/09 06:27:15;;;;;;;20.00;8.50;;;;;;;-20.12;71.39;137436.56;107142;1264;25402;-59
2024/01/09 06:30:01;;;;;;;18.20;8.40;;;;;;;-20.00;71.28;137462.89;107016;1266;25344;-59
2024/01/09 06:32:46;;;;;;;18.90;8.30;;;;;;;-19.18;69.35;137658.16;107121;1267;25568;-59
2024/01/09 06:35:32;;;;;;;23.00;8.30;;;;;;;-18.57;66.47;137804.97;107055;1263;25424;-59
2024/01/09 06:38:18;;;;;;;20.10;8.10;;;;;;;-18.28;64.68;137873.05;107069;1264;25366;-59
2024/01/09 06:41:03;;;;;;;20.10;7.50;;;;;;;-17.71;62.82;138009.33;107101;1263;25462;-58
2024/01/09 06:43:50;;;;;;;18.90;7.60;;;;;;;-17.13;61.08;138149.58;107063;1260;25583;-59
2024/01/09 06:46:36;;;;;;;20.80;8.90;;;;;;;-16.67;59.08;138258.55;107074;1266;25357;-57
2024/01/09 06:49:21;;;;;;;22.10;10.30;;;;;;;-17.21;58.78;138129.05;107056;1263;25845;-60
2024/01/09 06:52:07;;;;;;;18.30;9.70;;;;;;;-18.18;60.42;137898.22;107022;1266;25425;-56
2024/01/09 06:54:52;;;;;;;22.60;11.20;;;;;;;-18.72;63.18;137769.09;107040;1266;25385;-60
2024/01/09 06:57:38;;;;;;;21.70;8.40;;;;;;;-18.17;63.47;137900.91;107087;1261;25385;-57
2024/01/09 07:00:24;;;;;;;21.80;9.90;;;;;;;-18.29;63.81;137871.36;107174;1260;23281;-57
2024/01/09 07:03:10;;;;;;;18.00;8.90;;;;;;;-18.69;64.96;137775.45;107178;1263;25421;-61
2024/01/09 07:05:55;;;;;;;24.40;8.30;;;;;;;-19.19;67.06;137657.41;107127;1266;25369;-60
2024/01/09 07:08:41;;;;;;;17.70;7.90;;;;;;;-19.67;69.09;137542.80;107049;1264;25362;-59
2024/01/09 07:11:26;;;;;;;17.20;8.00;;;;;;;-20.02;70.89;137460.20;107139;1266;25424;-60
2024/01/09 07:14:12;;;;;;;20.80;8.00;;;;;;;-20.40;73.14;137369.80;107128;1254;25243;-57
2024/01/09 07:16:58;;;;;;;21.70;8.20;;;;;;;-20.64;74.87;137312.13;107114;1263;25353;-60
2024/01/09 07:19:44;;;;;;;19.80;6.70;;;;;;;-20.73;76.76;137290.20;107001;1266;25372;-57
2024/01/09 07:22:30;;;;;;;23.10;8.50;;;;;;;-20.83;78.90;137265.14;107041;1266;25353;-59
2024/01/09 07:25:17;;;;;;;25.00;8.90;;;;;;;-20.91;80.04;137246.39;106964;1266;25437;-58
2024/01/09 07:28:02;;;;;;;22.10;7.90;;;;;;;-21.05;81.87;137213.28;107101;1260;25335;-58
2024/01/09 07:30:48;;;;;;;20.80;8.90;;;;;;;-21.08;83.03;137206.95;107442;1266;25414;-60
2024/01/09 07:33:34;;;;;;;19.50;8.50;;;;;;;-21.08;84.21;137205.97;107005;1266;25341;-59
2024/01/09 07:36:20;;;;;;;19.90;8.30;;;;;;;-21.08;85.26;137207.20;106985;1266;25357;-60
2024/01/09 07:39:07;;;;;;;24.00;9.60;;;;;;;-21.06;86.80;137212.78;106971;1263;25474;-59
2024/01/09 07:41:53;;;;;;;20.30;9.20;;;;;;;-20.94;87.25;137240.78;107003;1263;24360;-57
2024/01/09 07:44:39;;;;;;;19.30;8.10;;;;;;;-20.87;88.67;137258.08;106987;1264;25338;-58
2024/01/09 07:47:25;;;;;;;14.10;6.30;;;;;;;-20.76;90.72;137281.20;107015;1266;25414;-58
2024/01/09 07:50:11;;;;;;;18.90;7.50;;;;;;;-20.69;92.20;137300.45;107093;1264;25377;-61
2024/01/09 07:52:57;;;;;;;17.00;7.90;;;;;;;-20.63;94.06;137313.09;107177;1263;25362;-59
2024/01/09 07:55:42;;;;;;;18.40;8.40;;;;;;;-20.55;95.21;137332.83;107247;1256;25429;-59
2024/01/09 07:58:28;;;;;;;18.90;8.70;;;;;;;-20.48;96.70;137348.59;107071;1266;25523;-60
2024/01/09 08:01:14;;;;;;;21.90;8.40;;;;;;;-20.38;99.18;137373.47;107033;1266;25348;-58
2024/01/09 08:04:01;;;;;;;22.50;9.30;;;;;;;-20.37;100.00;137376.88;107035;1272;25372;-58
2024/01/09 08:06:49;;;;;;;15.20;7.10;;;;;;;-20.28;100.00;137396.34;107027;1263;25347;-60
2024/01/09 08:09:35;;;;;;;20.30;9.70;;;;;;;-20.22;100.00;137411.70;107082;1263;25466;-58
2024/01/09 08:12:21;;;;;;;19.60;10.30;;;;;;;-20.17;100.00;137422.41;107121;1275;25415;-56
2024/01/09 08:15:07;;;;;;;19.30;9.40;;;;;;;-20.14;100.00;137431.70;107103;1266;25375;-58
2024/01/09 08:17:53;;;;;;;19.70;9.20;;;;;;;-20.08;100.00;137444.38;107148;1263;25354;-61
2024/01/09 08:20:40;;;;;;;19.70;8.10;;;;;;;-19.99;100.00;137466.78;107166;1275;25494;-61
2024/01/09 08:23:26;;;;;;;14.00;6.30;;;;;;;-19.89;100.00;137490.66;107121;1263;25344;-60
2024/01/09 08:26:13;;;;;;;20.40;9.60;;;;;;;-19.85;100.00;137498.22;107161;1260;25446;-59
2024/01/09 08:29:01;;;;;;;18.40;8.30;;;;;;;-19.78;100.00;137516.28;107209;1256;25382;-58
2024/01/09 08:31:48;;;;;;;20.90;10.30;;;;;;;-19.65;100.00;137548.66;107058;1258;25375;-58
2024/01/09 08:34:34;;;;;;;24.90;10.70;;;;;;;-19.49;100.00;137584.97;107106;1257;25396;-58
2024/01/09 08:37:20;;;;;;;24.30;9.30;;;;;;;-19.41;100.00;137604.95;107011;1266;25385;-60
2024/01/09 08:40:06;;;;;;;17.00;7.40;;;;;;;-19.35;100.00;137617.88;107124;1257;25328;-58
2024/01/09 08:42:52;;;;;;;22.00;9.20;;;;;;;-19.40;100.00;137605.20;108346;1259;25344;-59
2024/01/09 08:45:38;;;;;;;18.70;7.80;;;;;;;-19.38;100.00;137612.27;107997;1256;23199;-60
2024/01/09 08:48:23;;;;;;;17.90;7.70;;;;;;;-19.31;100.00;137627.88;107309;1264;25410;-60
2024/01/09 08:51:09;;;;;;;23.00;10.40;;;;;;;-19.32;100.00;137625.70;107008;1263;25412;-61
2024/01/09 08:54:01;;;;;;;27.70;11.00;;;;;;;-19.27;100.00;137639.09;107061;1253;22526;-60
2024/01/09 08:56:47;;;;;;;24.30;10.80;;;;;;;-19.15;100.00;137665.95;107269;1265;23513;-56
2024/01/09 08:59:32;;;;;;;20.70;9.30;;;;;;;-19.05;100.00;137690.83;107224;1266;25344;-57
2024/01/09 09:02:18;;;;;;;25.80;11.30;;;;;;;-18.84;100.00;137740.84;107775;1259;25376;-56
2024/01/09 09:05:05;;;;;;;21.20;10.20;;;;;;;-18.73;100.00;137767.39;107013;1256;25395;-57
2024/01/09 09:07:51;;;;;;;18.40;9.30;;;;;;;-18.69;100.00;137775.91;106883;1266;25459;-57
2024/01/09 09:10:36;;;;;;;19.20;10.40;;;;;;;-18.67;100.00;137781.77;106843;1253;25424;-61
2024/01/09 09:13:22;;;;;;;21.10;10.30;;;;;;;-18.67;100.00;137780.80;106823;1258;25450;-58
2024/01/09 09:16:08;;;;;;;17.90;9.60;;;;;;;-18.59;100.00;137800.80;106850;1257;25370;-58
2024/01/09 09:18:55;;;;;;;21.70;8.80;;;;;;;-18.69;100.00;137777.63;106919;1260;25357;-57
2024/01/09 09:21:41;;;;;;;24.90;11.00;;;;;;;-18.72;100.00;137769.59;106945;1258;25376;-60
2024/01/09 09:24:27;;;;;;;23.20;11.40;;;;;;;-18.64;100.00;137787.88;106924;1253;25497;-59
2024/01/09 09:27:13;;;;;;;21.00;10.30;;;;;;;-18.57;100.00;137804.22;106862;1266;25474;-60
2024/01/09 09:29:59;;;;;;;19.40;9.30;;;;;;;-18.47;100.00;137828.64;109118;1253;25411;-58
2024/01/09 09:32:46;;;;;;;25.80;11.20;;;;;;;-18.44;100.00;137836.20;107036;1275;22655;-57
2024/01/09 09:35:32;;;;;;;22.40;11.50;;;;;;;-18.42;100.00;137840.34;107021;1267;23663;-59
2024/01/09 09:38:18;;;;;;;18.70;8.90;;;;;;;-18.39;100.00;137848.16;106973;1275;25443;-59
2024/01/09 09:41:07;;;;;;;18.80;9.30;;;;;;;-18.39;100.00;137848.66;106826;1257;25406;-59
2024/01/09 09:43:56;;;;;;;22.70;11.00;;;;;;;-18.35;100.00;137856.22;106800;1264;25427;-58
2024/01/09 09:46:44;;;;;;;21.60;11.50;;;;;;;-18.33;100.00;137860.88;106784;1260;25405;-58
2024/01/09 09:49:30;;;;;;;19.90;9.90;;;;;;;-18.35;100.00;137857.42;106851;1266;25396;-59
2024/01/09 09:52:18;;;;;;;24.00;11.60;;;;;;;-18.33;100.00;137862.09;106895;1275;25437;-59
2024/01/09 09:55:04;;;;;;;21.00;9.30;;;;;;;-18.22;100.00;137887.47;106820;1266;25411;-58
2024/01/09 09:57:50;;;;;;;22.70;10.10;;;;;;;-18.10;100.00;137916.78;107254;1256;25555;-61
2024/01/09 10:00:36;;;;;;;24.00;10.90;;;;;;;-18.07;100.00;137923.61;107168;1254;25337;-58
2024/01/09 10:03:28;;;;;;;21.20;9.30;;;;;;;-18.01;100.00;137937.78;107370;1258;23560;-60
2024/01/09 10:06:17;;;;;;;22.20;9.20;;;;;;;-17.99;100.00;137942.67;107331;1260;24777;-57
2024/01/09 10:09:06;;;;;;;19.90;10.20;;;;;;;-17.98;100.00;137944.61;107833;1266;25484;-61
2024/01/09 10:11:52;;;;;;;22.00;9.60;;;;;;;-17.95;100.00;137953.17;107384;1264;25372;-59
2024/01/09 10:15:07;;;;;;;19.20;8.80;;;;;;;-17.84;100.00;137978.06;107406;1266;25394;-59
2024/01/09 10:17:53;;;;;;;18.10;9.50;;;;;;;-17.66;100.00;138020.53;107337;1268;25354;-61
2024/01/09 10:20:39;;;;;;;24.50;9.70;;;;;;;-17.53;100.00;138053.03;107237;1256;22529;-59
2024/01/09 10:23:44;;;;;;;20.90;9.20;;;;;;;-17.42;100.00;138079.67;107613;1256;25347;-58
2024/01/09 10:26:29;;;;;;;17.90;9.60;;;;;;;-17.41;100.00;138080.41;107357;1253;24240;-57
2024/01/09 10:29:15;;;;;;;19.00;9.10;;;;;;;-17.39;100.00;138087.02;106818;1257;25335;-58
2024/01/09 10:32:02;;;;;;;30.80;14.60;;;;;;;-17.27;100.00;138114.38;106995;1257;24187;-59
2024/01/09 10:34:47;;;;;;;22.50;9.00;;;;;;;-17.13;100.00;138148.84;107275;1267;25347;-59
2024/01/09 10:37:34;;;;;;;24.00;10.00;;;;;;;-17.09;100.00;138157.66;106968;1270;25372;-57
2024/01/09 10:40:26;;;;;;;25.20;11.80;;;;;;;-17.15;100.00;138143.72;107428;1256;24236;-57
2024/01/09 10:43:17;;;;;;;18.00;8.50;;;;;;;-17.13;100.00;138148.09;107477;1256;25462;-60
2024/01/09 10:46:03;;;;;;;25.10;13.50;;;;;;;-17.11;100.00;138152.50;107117;1258;25381;-61
2024/01/09 10:48:51;;;;;;;27.30;11.10;;;;;;;-16.96;100.00;138189.17;107064;1263;24200;-60
2024/01/09 10:51:37;;;;;;;16.80;8.10;;;;;;;-16.85;100.00;138216.80;107230;1264;23278;-61
2024/01/09 10:54:25;;;;;;;19.30;9.30;;;;;;;-16.96;100.00;138188.92;107193;1257;22678;-61
2024/01/09 10:57:13;;;;;;;21.50;9.70;;;;;;;-17.04;100.00;138170.59;106959;1270;25500;-61
2024/01/09 11:00:00;;;;;;;22.60;9.60;;;;;;;-16.96;100.00;138187.95;107031;1257;25372;-63
2024/01/09 11:02:47;;;;;;;23.20;9.50;;;;;;;-16.83;100.00;138219.47;107289;1267;23886;-64
2024/01/09 11:05:34;;;;;;;18.30;9.80;;;;;;;-16.75;100.00;138239.02;107016;1266;25449;-60
2024/01/09 11:08:20;;;;;;;20.50;9.10;;;;;;;-16.71;100.00;138247.81;107227;1253;23265;-60
2024/01/09 11:11:10;;;;;;;14.50;8.30;;;;;;;-16.79;100.00;138229.75;107182;1266;25362;-62
2024/01/09 11:14:03;;;;;;;17.50;8.80;;;;;;;-16.77;100.00;138234.38;107223;1270;24377;-61
2024/01/09 11:16:51;;;;;;;20.70;10.00;;;;;;;-16.75;100.00;138239.73;107243;1256;25421;-62
2024/01/09 11:19:38;;;;;;;18.20;8.70;;;;;;;-16.69;100.00;138253.70;107286;1266;24215;-62
2024/01/09 11:22:24;;;;;;;21.00;9.60;;;;;;;-16.69;100.00;138252.69;107198;1264;25468;-61
2024/01/09 11:25:15;;;;;;;20.90;9.50;;;;;;;-16.62;100.00;138270.31;107427;1266;25407;-61
2024/01/09 11:28:01;;;;;;;21.20;10.10;;;;;;;-16.46;100.00;138308.22;107347;1259;25344;-61
2024/01/09 11:30:50;;;;;;;22.80;9.20;;;;;;;-16.31;100.00;138344.92;107545;1262;24381;-61
2024/01/09 11:33:41;;;;;;;24.70;11.60;;;;;;;-16.24;100.00;138362.03;107073;1266;25347;-64
2024/01/09 11:36:34;;;;;;;22.40;10.40;;;;;;;-16.22;100.00;138367.17;107164;1258;25548;-60
2024/01/09 11:39:20;;;;;;;17.80;8.70;;;;;;;-16.30;100.00;138346.89;107204;1257;25358;-60
2024/01/09 11:42:06;;;;;;;21.60;10.40;;;;;;;-16.44;100.00;138314.59;107266;1253;25382;-61
2024/01/09 11:44:53;;;;;;;22.40;10.20;;;;;;;-16.52;100.00;138295.27;107199;1257;25360;-60
2024/01/09 11:47:39;;;;;;;22.90;12.20;;;;;;;-16.65;100.00;138262.72;107101;1257;25375;-61
2024/01/09 11:50:25;;;;;;;19.20;9.60;;;;;;;-16.67;100.00;138257.84;107112;1267;25347;-62
2024/01/09 11:53:11;;;;;;;20.20;9.50;;;;;;;-16.58;100.00;138280.34;107246;1257;25423;-60
2024/01/09 11:55:58;;;;;;;16.30;9.30;;;;;;;-16.44;100.00;138313.34;107488;1267;25405;-60
2024/01/09 11:58:47;;;;;;;18.20;9.40;;;;;;;-16.24;100.00;138359.84;107157;1256;25523;-62
2024/01/09 12:01:33;;;;;;;18.20;9.60;;;;;;;-16.09;100.00;138398.00;107213;1257;25402;-60
2024/01/09 12:04:18;;;;;;;15.10;8.70;;;;;;;-16.05;100.00;138406.09;107327;1259;25428;-60
2024/01/09 12:07:04;;;;;;;20.40;9.60;;;;;;;-16.03;100.00;138410.97;107076;1270;24633;-57
2024/01/09 12:09:50;;;;;;;18.30;9.50;;;;;;;-15.98;100.00;138423.95;106855;1257;25366;-60
2024/01/09 12:12:36;;;;;;;19.90;10.20;;;;;;;-15.99;100.00;138421.52;106965;1256;24267;-60
2024/01/09 12:15:22;;;;;;;22.40;11.20;;;;;;;-15.99;100.00;138422.23;106838;1272;25446;-58
2024/01/09 12:18:07;;;;;;;21.90;11.00;;;;;;;-16.06;100.00;138403.39;106850;1275;25440;-59
2024/01/09 12:20:54;;;;;;;21.20;9.90;;;;;;;-16.08;100.00;138398.25;106868;1275;25869;-59
2024/01/09 12:23:40;;;;;;;23.50;10.50;;;;;;;-16.10;100.00;138393.59;106877;1256;25583;-58